sensor_id;sensor_type;location;lat;lon;timestamp;P1;durP1;ratioP1;P2;durP2;ratioP2
48897;SDS011;34713;50.038;20.000;2023-01-24T00:02:18;50.20;;;27.20;;
48897;SDS011;34713;50.038;20.000;2023-01-24T00:04:44;42.70;;;26.70;;
48897;SDS011;34713;50.038;20.000;2023-01-24T00:07:13;47.20;;;26.70;;
48897;SDS011;34713;50.038;20.000;2023-01-24T00:09:39;44.80;;;26.10;;
48897;SDS011;34713;50.038;20.000;2023-01-24T00:12:06;44.50;;;25.50;;
48897;SDS011;34713;50.038;20.000;2023-01-24T00:14:33;47.20;;;25.70;;
48897;SDS011;34713;50.038;20.000;2023-01-24T00:16:59;43.80;;;26.00;;
48897;SDS011;34713;50.038;20.000;2023-01-24T00:19:26;45.00;;;26.80;;
48897;SDS011;34713;50.038;20.000;2023-01-24T00:21:52;41.70;;;26.30;;
48897;SDS011;34713;50.038;20.000;2023-01-24T00:24:19;40.10;;;24.10;;
48897;SDS011;34713;50.038;20.000;2023-01-24T00:26:45;43.10;;;25.50;;
48897;SDS011;34713;50.038;20.000;2023-01-24T00:29:12;43.00;;;26.00;;
48897;SDS011;34713;50.038;20.000;2023-01-24T00:31:39;45.50;;;26.30;;
48897;SDS011;34713;50.038;20.000;2023-01-24T00:34:05;40.70;;;25.50;;
48897;SDS011;34713;50.038;20.000;2023-01-24T00:36:32;43.90;;;23.30;;
48897;SDS011;34713;50.038;20.000;2023-01-24T00:38:59;45.40;;;25.60;;
48897;SDS011;34713;50.038;20.000;2023-01-24T00:41:25;45.60;;;27.60;;
48897;SDS011;34713;50.038;20.000;2023-01-24T00:43:52;45.30;;;25.40;;
48897;SDS011;34713;50.038;20.000;2023-01-24T00:46:18;49.30;;;27.90;;
48897;SDS011;34713;50.038;20.000;2023-01-24T00:48:45;50.30;;;27.60;;
48897;SDS011;34713;50.038;20.000;2023-01-24T00:51:11;45.20;;;27.00;;
48897;SDS011;34713;50.038;20.000;2023-01-24T00:53:38;45.30;;;27.20;;
48897;SDS011;34713;50.038;20.000;2023-01-24T00:56:05;47.90;;;28.10;;
48897;SDS011;34713;50.038;20.000;2023-01-24T00:58:32;46.20;;;27.90;;
48897;SDS011;34713;50.038;20.000;2023-01-24T01:00:59;39.80;;;24.00;;
48897;SDS011;34713;50.038;20.000;2023-01-24T01:03:28;38.50;;;23.50;;
48897;SDS011;34713;50.038;20.000;2023-01-24T01:06:14;42.10;;;25.40;;
48897;SDS011;34713;50.038;20.000;2023-01-24T01:08:42;41.30;;;23.90;;
48897;SDS011;34713;50.038;20.000;2023-01-24T01:11:08;37.60;;;23.40;;
48897;SDS011;34713;50.038;20.000;2023-01-24T01:13:35;39.10;;;24.00;;
48897;SDS011;34713;50.038;20.000;2023-01-24T01:16:03;44.30;;;23.20;;
48897;SDS011;34713;50.038;20.000;2023-01-24T01:18:36;41.50;;;22.80;;
48897;SDS011;34713;50.038;20.000;2023-01-24T01:21:04;36.00;;;23.30;;
48897;SDS011;34713;50.038;20.000;2023-01-24T01:23:31;35.80;;;21.50;;
48897;SDS011;34713;50.038;20.000;2023-01-24T01:26:01;37.00;;;22.80;;
48897;SDS011;34713;50.038;20.000;2023-01-24T01:28:30;40.30;;;22.90;;
48897;SDS011;34713;50.038;20.000;2023-01-24T01:30:57;38.70;;;23.20;;
48897;SDS011;34713;50.038;20.000;2023-01-24T01:33:24;38.30;;;22.50;;
48897;SDS011;34713;50.038;20.000;2023-01-24T01:35:51;38.40;;;22.60;;
48897;SDS011;34713;50.038;20.000;2023-01-24T01:38:18;35.30;;;20.30;;
48897;SDS011;34713;50.038;20.000;2023-01-24T01:40:45;36.40;;;21.90;;
48897;SDS011;34713;50.038;20.000;2023-01-24T01:43:13;39.70;;;22.80;;
48897;SDS011;34713;50.038;20.000;2023-01-24T01:50:45;34.80;;;21.40;;
48897;SDS011;34713;50.038;20.000;2023-01-24T01:53:15;31.50;;;18.40;;
48897;SDS011;34713;50.038;20.000;2023-01-24T01:55:43;30.20;;;18.70;;
48897;SDS011;34713;50.038;20.000;2023-01-24T01:58:12;30.40;;;18.90;;
48897;SDS011;34713;50.038;20.000;2023-01-24T02:00:40;28.90;;;17.50;;
48897;SDS011;34713;50.038;20.000;2023-01-24T02:03:09;29.40;;;17.80;;
48897;SDS011;34713;50.038;20.000;2023-01-24T02:05:56;26.40;;;16.00;;
48897;SDS011;34713;50.038;20.000;2023-01-24T02:08:23;29.80;;;17.90;;
48897;SDS011;34713;50.038;20.000;2023-01-24T02:10:50;31.40;;;18.70;;
48897;SDS011;34713;50.038;20.000;2023-01-24T02:16:05;25.90;;;15.70;;
48897;SDS011;34713;50.038;20.000;2023-01-24T02:18:34;29.00;;;17.40;;
48897;SDS011;34713;50.038;20.000;2023-01-24T02:21:04;26.50;;;15.00;;
48897;SDS011;34713;50.038;20.000;2023-01-24T02:26:29;24.20;;;15.00;;
48897;SDS011;34713;50.038;20.000;2023-01-24T02:29:06;28.00;;;16.40;;
48897;SDS011;34713;50.038;20.000;2023-01-24T02:31:55;23.80;;;15.80;;
48897;SDS011;34713;50.038;20.000;2023-01-24T02:34:23;28.20;;;16.70;;
48897;SDS011;34713;50.038;20.000;2023-01-24T02:36:55;25.90;;;15.10;;
48897;SDS011;34713;50.038;20.000;2023-01-24T02:39:28;28.20;;;15.70;;
48897;SDS011;34713;50.038;20.000;2023-01-24T02:41:57;25.40;;;16.30;;
48897;SDS011;34713;50.038;20.000;2023-01-24T02:44:37;22.80;;;14.40;;
48897;SDS011;34713;50.038;20.000;2023-01-24T02:47:06;27.50;;;16.10;;
48897;SDS011;34713;50.038;20.000;2023-01-24T02:49:32;27.00;;;15.40;;
48897;SDS011;34713;50.038;20.000;2023-01-24T02:51:59;27.80;;;15.20;;
48897;SDS011;34713;50.038;20.000;2023-01-24T02:54:44;26.40;;;16.50;;
48897;SDS011;34713;50.038;20.000;2023-01-24T02:57:11;26.30;;;15.90;;
48897;SDS011;34713;50.038;20.000;2023-01-24T02:59:55;27.80;;;15.50;;
48897;SDS011;34713;50.038;20.000;2023-01-24T03:02:22;24.60;;;15.10;;
48897;SDS011;34713;50.038;20.000;2023-01-24T03:04:49;25.70;;;15.60;;
48897;SDS011;34713;50.038;20.000;2023-01-24T03:07:15;26.50;;;15.50;;
48897;SDS011;34713;50.038;20.000;2023-01-24T03:09:42;32.10;;;17.90;;
48897;SDS011;34713;50.038;20.000;2023-01-24T03:12:14;28.70;;;16.30;;
48897;SDS011;34713;50.038;20.000;2023-01-24T03:15:00;33.70;;;18.80;;
48897;SDS011;34713;50.038;20.000;2023-01-24T03:17:45;33.80;;;18.70;;
48897;SDS011;34713;50.038;20.000;2023-01-24T03:20:30;38.50;;;21.10;;
48897;SDS011;34713;50.038;20.000;2023-01-24T03:23:15;34.20;;;18.80;;
48897;SDS011;34713;50.038;20.000;2023-01-24T03:26:00;34.90;;;21.20;;
48897;SDS011;34713;50.038;20.000;2023-01-24T03:28:45;36.90;;;22.00;;
48897;SDS011;34713;50.038;20.000;2023-01-24T03:31:30;37.00;;;20.70;;
48897;SDS011;34713;50.038;20.000;2023-01-24T03:34:15;33.60;;;20.50;;
48897;SDS011;34713;50.038;20.000;2023-01-24T03:37:12;38.40;;;21.90;;
48897;SDS011;34713;50.038;20.000;2023-01-24T03:39:40;32.00;;;19.30;;
48897;SDS011;34713;50.038;20.000;2023-01-24T03:42:26;33.00;;;20.10;;
48897;SDS011;34713;50.038;20.000;2023-01-24T03:44:53;31.60;;;18.50;;
48897;SDS011;34713;50.038;20.000;2023-01-24T03:47:19;33.70;;;18.70;;
48897;SDS011;34713;50.038;20.000;2023-01-24T03:49:46;30.90;;;17.30;;
48897;SDS011;34713;50.038;20.000;2023-01-24T03:52:31;29.80;;;17.10;;
48897;SDS011;34713;50.038;20.000;2023-01-24T03:54:58;27.30;;;17.20;;
48897;SDS011;34713;50.038;20.000;2023-01-24T03:57:26;28.00;;;17.00;;
48897;SDS011;34713;50.038;20.000;2023-01-24T03:59:54;29.00;;;17.10;;
48897;SDS011;34713;50.038;20.000;2023-01-24T04:02:20;26.80;;;16.30;;
48897;SDS011;34713;50.038;20.000;2023-01-24T04:04:47;27.40;;;16.20;;
48897;SDS011;34713;50.038;20.000;2023-01-24T04:09:59;26.90;;;15.40;;
48897;SDS011;34713;50.038;20.000;2023-01-24T04:12:26;26.80;;;15.20;;
48897;SDS011;34713;50.038;20.000;2023-01-24T04:14:52;24.80;;;13.80;;
48897;SDS011;34713;50.038;20.000;2023-01-24T04:17:19;26.40;;;14.90;;
48897;SDS011;34713;50.038;20.000;2023-01-24T04:19:46;24.80;;;14.40;;
48897;SDS011;34713;50.038;20.000;2023-01-24T04:22:14;29.70;;;16.20;;
48897;SDS011;34713;50.038;20.000;2023-01-24T04:24:42;22.90;;;14.70;;
48897;SDS011;34713;50.038;20.000;2023-01-24T04:27:09;25.30;;;15.10;;
48897;SDS011;34713;50.038;20.000;2023-01-24T04:29:36;24.40;;;14.80;;
48897;SDS011;34713;50.038;20.000;2023-01-24T04:32:03;24.50;;;15.60;;
48897;SDS011;34713;50.038;20.000;2023-01-24T04:34:30;26.10;;;16.10;;
48897;SDS011;34713;50.038;20.000;2023-01-24T04:36:57;22.80;;;14.40;;
48897;SDS011;34713;50.038;20.000;2023-01-24T04:39:23;23.50;;;15.10;;
48897;SDS011;34713;50.038;20.000;2023-01-24T04:41:50;25.00;;;15.70;;
48897;SDS011;34713;50.038;20.000;2023-01-24T04:44:17;24.70;;;15.00;;
48897;SDS011;34713;50.038;20.000;2023-01-24T04:46:43;25.70;;;14.50;;
48897;SDS011;34713;50.038;20.000;2023-01-24T04:49:10;23.00;;;14.30;;
48897;SDS011;34713;50.038;20.000;2023-01-24T04:51:36;24.30;;;14.80;;
48897;SDS011;34713;50.038;20.000;2023-01-24T04:54:03;22.30;;;13.50;;
48897;SDS011;34713;50.038;20.000;2023-01-24T04:56:30;26.80;;;15.10;;
48897;SDS011;34713;50.038;20.000;2023-01-24T04:58:56;25.90;;;15.40;;
48897;SDS011;34713;50.038;20.000;2023-01-24T05:01:23;25.00;;;14.70;;
48897;SDS011;34713;50.038;20.000;2023-01-24T05:03:50;22.20;;;14.30;;
48897;SDS011;34713;50.038;20.000;2023-01-24T05:06:16;21.00;;;13.70;;
48897;SDS011;34713;50.038;20.000;2023-01-24T05:08:43;20.20;;;12.10;;
48897;SDS011;34713;50.038;20.000;2023-01-24T05:11:09;22.40;;;14.20;;
48897;SDS011;34713;50.038;20.000;2023-01-24T05:13:36;22.50;;;13.00;;
48897;SDS011;34713;50.038;20.000;2023-01-24T05:16:02;19.60;;;12.40;;
48897;SDS011;34713;50.038;20.000;2023-01-24T05:18:29;21.90;;;12.70;;
48897;SDS011;34713;50.038;20.000;2023-01-24T05:21:03;20.70;;;13.00;;
48897;SDS011;34713;50.038;20.000;2023-01-24T05:23:40;22.70;;;12.90;;
48897;SDS011;34713;50.038;20.000;2023-01-24T05:26:07;21.20;;;13.70;;
48897;SDS011;34713;50.038;20.000;2023-01-24T05:28:34;24.00;;;13.00;;
48897;SDS011;34713;50.038;20.000;2023-01-24T05:31:01;22.60;;;14.20;;
48897;SDS011;34713;50.038;20.000;2023-01-24T05:33:29;21.60;;;14.00;;
48897;SDS011;34713;50.038;20.000;2023-01-24T05:36:06;22.70;;;12.70;;
48897;SDS011;34713;50.038;20.000;2023-01-24T05:38:34;21.90;;;14.40;;
48897;SDS011;34713;50.038;20.000;2023-01-24T05:41:04;23.70;;;14.10;;
48897;SDS011;34713;50.038;20.000;2023-01-24T05:43:33;25.10;;;14.20;;
48897;SDS011;34713;50.038;20.000;2023-01-24T05:46:02;22.00;;;13.90;;
48897;SDS011;34713;50.038;20.000;2023-01-24T05:48:30;23.10;;;14.60;;
48897;SDS011;34713;50.038;20.000;2023-01-24T05:50:57;23.10;;;14.10;;
48897;SDS011;34713;50.038;20.000;2023-01-24T05:53:25;21.80;;;13.60;;
48897;SDS011;34713;50.038;20.000;2023-01-24T05:56:26;24.70;;;14.40;;
48897;SDS011;34713;50.038;20.000;2023-01-24T05:58:46;24.20;;;14.20;;
48897;SDS011;34713;50.038;20.000;2023-01-24T06:01:15;22.00;;;13.60;;
48897;SDS011;34713;50.038;20.000;2023-01-24T06:03:44;24.10;;;13.60;;
48897;SDS011;34713;50.038;20.000;2023-01-24T06:06:12;24.80;;;14.10;;
48897;SDS011;34713;50.038;20.000;2023-01-24T06:08:40;23.10;;;13.90;;
48897;SDS011;34713;50.038;20.000;2023-01-24T06:11:09;22.20;;;13.50;;
48897;SDS011;34713;50.038;20.000;2023-01-24T06:13:38;22.60;;;13.60;;
48897;SDS011;34713;50.038;20.000;2023-01-24T06:16:06;25.70;;;13.60;;
48897;SDS011;34713;50.038;20.000;2023-01-24T06:18:37;23.70;;;13.90;;
48897;SDS011;34713;50.038;20.000;2023-01-24T06:21:07;26.50;;;13.80;;
48897;SDS011;34713;50.038;20.000;2023-01-24T06:23:34;25.80;;;14.60;;
48897;SDS011;34713;50.038;20.000;2023-01-24T06:26:01;24.10;;;13.10;;
48897;SDS011;34713;50.038;20.000;2023-01-24T06:28:28;26.80;;;13.80;;
48897;SDS011;34713;50.038;20.000;2023-01-24T06:34:00;23.40;;;13.00;;
48897;SDS011;34713;50.038;20.000;2023-01-24T06:37:51;24.90;;;14.20;;
48897;SDS011;34713;50.038;20.000;2023-01-24T06:40:07;28.50;;;14.30;;
48897;SDS011;34713;50.038;20.000;2023-01-24T06:42:35;24.20;;;13.60;;
48897;SDS011;34713;50.038;20.000;2023-01-24T06:45:02;24.10;;;13.80;;
48897;SDS011;34713;50.038;20.000;2023-01-24T06:47:29;25.80;;;12.40;;
48897;SDS011;34713;50.038;20.000;2023-01-24T06:49:56;26.70;;;14.50;;
48897;SDS011;34713;50.038;20.000;2023-01-24T06:52:22;26.50;;;13.20;;
48897;SDS011;34713;50.038;20.000;2023-01-24T06:54:49;27.50;;;13.60;;
48897;SDS011;34713;50.038;20.000;2023-01-24T06:57:15;28.00;;;13.30;;
48897;SDS011;34713;50.038;20.000;2023-01-24T06:59:42;24.10;;;13.60;;
48897;SDS011;34713;50.038;20.000;2023-01-24T07:02:09;26.80;;;13.30;;
48897;SDS011;34713;50.038;20.000;2023-01-24T07:04:36;23.50;;;13.20;;
48897;SDS011;34713;50.038;20.000;2023-01-24T07:07:03;23.40;;;13.10;;
48897;SDS011;34713;50.038;20.000;2023-01-24T07:09:32;25.20;;;13.00;;
48897;SDS011;34713;50.038;20.000;2023-01-24T07:11:59;24.80;;;13.30;;
48897;SDS011;34713;50.038;20.000;2023-01-24T07:14:25;25.20;;;12.80;;
48897;SDS011;34713;50.038;20.000;2023-01-24T07:16:52;26.60;;;14.40;;
48897;SDS011;34713;50.038;20.000;2023-01-24T07:19:22;29.10;;;14.30;;
48897;SDS011;34713;50.038;20.000;2023-01-24T07:21:50;27.20;;;14.90;;
48897;SDS011;34713;50.038;20.000;2023-01-24T07:24:19;25.70;;;15.30;;
48897;SDS011;34713;50.038;20.000;2023-01-24T07:26:48;27.00;;;15.10;;
48897;SDS011;34713;50.038;20.000;2023-01-24T07:29:17;26.90;;;14.60;;
48897;SDS011;34713;50.038;20.000;2023-01-24T07:31:44;27.00;;;15.80;;
48897;SDS011;34713;50.038;20.000;2023-01-24T07:34:14;28.00;;;14.90;;
48897;SDS011;34713;50.038;20.000;2023-01-24T07:36:43;28.60;;;15.30;;
48897;SDS011;34713;50.038;20.000;2023-01-24T07:39:10;27.00;;;14.90;;
48897;SDS011;34713;50.038;20.000;2023-01-24T07:41:37;30.00;;;14.00;;
48897;SDS011;34713;50.038;20.000;2023-01-24T07:44:05;26.10;;;15.60;;
48897;SDS011;34713;50.038;20.000;2023-01-24T07:46:32;26.30;;;14.40;;
48897;SDS011;34713;50.038;20.000;2023-01-24T07:48:59;29.80;;;15.20;;
48897;SDS011;34713;50.038;20.000;2023-01-24T07:51:26;27.00;;;14.60;;
48897;SDS011;34713;50.038;20.000;2023-01-24T07:53:53;33.80;;;16.80;;
48897;SDS011;34713;50.038;20.000;2023-01-24T07:56:20;27.30;;;14.00;;
48897;SDS011;34713;50.038;20.000;2023-01-24T07:58:46;26.10;;;14.30;;
48897;SDS011;34713;50.038;20.000;2023-01-24T08:01:17;32.60;;;14.70;;
48897;SDS011;34713;50.038;20.000;2023-01-24T08:03:44;25.10;;;13.40;;
48897;SDS011;34713;50.038;20.000;2023-01-24T08:06:11;26.10;;;14.20;;
48897;SDS011;34713;50.038;20.000;2023-01-24T08:08:38;28.10;;;13.30;;
48897;SDS011;34713;50.038;20.000;2023-01-24T08:11:05;36.40;;;15.00;;
48897;SDS011;34713;50.038;20.000;2023-01-24T08:13:31;24.00;;;13.60;;
48897;SDS011;34713;50.038;20.000;2023-01-24T08:16:00;25.10;;;14.30;;
48897;SDS011;34713;50.038;20.000;2023-01-24T08:18:27;27.60;;;13.90;;
48897;SDS011;34713;50.038;20.000;2023-01-24T08:20:54;25.60;;;14.50;;
48897;SDS011;34713;50.038;20.000;2023-01-24T08:23:22;24.90;;;13.40;;
48897;SDS011;34713;50.038;20.000;2023-01-24T08:25:49;28.60;;;13.80;;
48897;SDS011;34713;50.038;20.000;2023-01-24T08:28:15;32.10;;;14.00;;
48897;SDS011;34713;50.038;20.000;2023-01-24T08:30:42;26.00;;;13.40;;
48897;SDS011;34713;50.038;20.000;2023-01-24T08:33:09;24.70;;;14.10;;
48897;SDS011;34713;50.038;20.000;2023-01-24T08:35:43;25.90;;;13.50;;
48897;SDS011;34713;50.038;20.000;2023-01-24T08:38:13;24.00;;;14.10;;
48897;SDS011;34713;50.038;20.000;2023-01-24T08:40:40;30.00;;;13.50;;
48897;SDS011;34713;50.038;20.000;2023-01-24T08:43:08;35.70;;;13.20;;
48897;SDS011;34713;50.038;20.000;2023-01-24T08:45:35;29.40;;;13.50;;
48897;SDS011;34713;50.038;20.000;2023-01-24T08:48:01;26.90;;;12.10;;
48897;SDS011;34713;50.038;20.000;2023-01-24T08:50:28;24.50;;;12.60;;
48897;SDS011;34713;50.038;20.000;2023-01-24T08:52:55;21.60;;;12.20;;
48897;SDS011;34713;50.038;20.000;2023-01-24T08:55:23;21.00;;;12.10;;
48897;SDS011;34713;50.038;20.000;2023-01-24T08:57:50;22.30;;;11.80;;
48897;SDS011;34713;50.038;20.000;2023-01-24T09:00:17;24.20;;;12.10;;
48897;SDS011;34713;50.038;20.000;2023-01-24T09:02:44;23.80;;;13.20;;
48897;SDS011;34713;50.038;20.000;2023-01-24T09:05:11;23.60;;;12.80;;
48897;SDS011;34713;50.038;20.000;2023-01-24T09:07:38;23.80;;;12.10;;
48897;SDS011;34713;50.038;20.000;2023-01-24T09:10:07;30.20;;;14.50;;
48897;SDS011;34713;50.038;20.000;2023-01-24T09:12:34;22.30;;;12.60;;
48897;SDS011;34713;50.038;20.000;2023-01-24T09:15:00;26.40;;;14.00;;
48897;SDS011;34713;50.038;20.000;2023-01-24T09:17:27;23.60;;;12.60;;
48897;SDS011;34713;50.038;20.000;2023-01-24T09:19:54;25.60;;;14.80;;
48897;SDS011;34713;50.038;20.000;2023-01-24T09:22:20;28.10;;;14.80;;
48897;SDS011;34713;50.038;20.000;2023-01-24T09:24:47;30.40;;;14.80;;
48897;SDS011;34713;50.038;20.000;2023-01-24T09:27:14;30.60;;;15.10;;
48897;SDS011;34713;50.038;20.000;2023-01-24T09:29:40;26.70;;;14.50;;
48897;SDS011;34713;50.038;20.000;2023-01-24T09:32:07;26.30;;;14.10;;
48897;SDS011;34713;50.038;20.000;2023-01-24T09:34:33;24.20;;;13.90;;
48897;SDS011;34713;50.038;20.000;2023-01-24T09:37:00;29.00;;;15.60;;
48897;SDS011;34713;50.038;20.000;2023-01-24T09:39:26;25.30;;;14.00;;
48897;SDS011;34713;50.038;20.000;2023-01-24T09:47:39;25.80;;;13.00;;
48897;SDS011;34713;50.038;20.000;2023-01-24T09:50:16;24.90;;;13.00;;
48897;SDS011;34713;50.038;20.000;2023-01-24T09:53:04;33.90;;;13.40;;
48897;SDS011;34713;50.038;20.000;2023-01-24T09:55:40;30.30;;;14.30;;
48897;SDS011;34713;50.038;20.000;2023-01-24T10:01:02;27.60;;;13.40;;
48897;SDS011;34713;50.038;20.000;2023-01-24T10:03:31;24.40;;;12.30;;
48897;SDS011;34713;50.038;20.000;2023-01-24T10:05:59;23.40;;;12.90;;
48897;SDS011;34713;50.038;20.000;2023-01-24T10:11:27;21.50;;;11.50;;
48897;SDS011;34713;50.038;20.000;2023-01-24T10:24:30;28.10;;;12.20;;
48897;SDS011;34713;50.038;20.000;2023-01-24T10:26:59;22.40;;;11.60;;
48897;SDS011;34713;50.038;20.000;2023-01-24T10:29:30;24.00;;;12.20;;
48897;SDS011;34713;50.038;20.000;2023-01-24T10:34:36;27.90;;;13.50;;
48897;SDS011;34713;50.038;20.000;2023-01-24T10:37:06;29.50;;;13.40;;
48897;SDS011;34713;50.038;20.000;2023-01-24T10:39:47;30.00;;;12.00;;
48897;SDS011;34713;50.038;20.000;2023-01-24T10:44:51;27.40;;;14.20;;
48897;SDS011;34713;50.038;20.000;2023-01-24T10:50:13;18.90;;;10.20;;
48897;SDS011;34713;50.038;20.000;2023-01-24T10:52:42;26.00;;;13.40;;
48897;SDS011;34713;50.038;20.000;2023-01-24T10:55:24;25.80;;;13.70;;
48897;SDS011;34713;50.038;20.000;2023-01-24T10:58:24;23.70;;;14.00;;
48897;SDS011;34713;50.038;20.000;2023-01-24T11:00:57;26.30;;;13.60;;
48897;SDS011;34713;50.038;20.000;2023-01-24T11:03:29;21.20;;;12.40;;
48897;SDS011;34713;50.038;20.000;2023-01-24T11:05:58;24.40;;;13.00;;
48897;SDS011;34713;50.038;20.000;2023-01-24T11:08:35;21.60;;;11.60;;
48897;SDS011;34713;50.038;20.000;2023-01-24T11:11:03;21.70;;;12.60;;
48897;SDS011;34713;50.038;20.000;2023-01-24T11:13:44;22.90;;;11.40;;
48897;SDS011;34713;50.038;20.000;2023-01-24T11:18:55;23.70;;;14.10;;
48897;SDS011;34713;50.038;20.000;2023-01-24T11:21:27;23.80;;;12.90;;
48897;SDS011;34713;50.038;20.000;2023-01-24T11:24:13;22.80;;;12.90;;
48897;SDS011;34713;50.038;20.000;2023-01-24T11:27:16;22.10;;;12.20;;
48897;SDS011;34713;50.038;20.000;2023-01-24T11:29:40;22.30;;;11.70;;
48897;SDS011;34713;50.038;20.000;2023-01-24T11:40:38;18.30;;;10.90;;
48897;SDS011;34713;50.038;20.000;2023-01-24T11:43:27;23.50;;;11.50;;
48897;SDS011;34713;50.038;20.000;2023-01-24T11:46:28;19.20;;;11.00;;
48897;SDS011;34713;50.038;20.000;2023-01-24T11:54:16;23.10;;;13.30;;
48897;SDS011;34713;50.038;20.000;2023-01-24T12:13:32;27.10;;;14.10;;
48897;SDS011;34713;50.038;20.000;2023-01-24T12:16:10;24.20;;;15.00;;
48897;SDS011;34713;50.038;20.000;2023-01-24T12:21:33;28.10;;;14.10;;
48897;SDS011;34713;50.038;20.000;2023-01-24T12:24:14;25.30;;;14.00;;
48897;SDS011;34713;50.038;20.000;2023-01-24T12:26:47;27.00;;;14.70;;
48897;SDS011;34713;50.038;20.000;2023-01-24T12:29:42;22.50;;;12.70;;
48897;SDS011;34713;50.038;20.000;2023-01-24T12:32:25;27.90;;;14.40;;
48897;SDS011;34713;50.038;20.000;2023-01-24T12:45:40;26.40;;;15.80;;
48897;SDS011;34713;50.038;20.000;2023-01-24T12:48:32;23.10;;;13.20;;
48897;SDS011;34713;50.038;20.000;2023-01-24T12:56:29;24.70;;;13.30;;
48897;SDS011;34713;50.038;20.000;2023-01-24T12:58:59;19.50;;;12.50;;
48897;SDS011;34713;50.038;20.000;2023-01-24T13:09:54;18.80;;;12.10;;
48897;SDS011;34713;50.038;20.000;2023-01-24T13:12:26;20.70;;;12.20;;
48897;SDS011;34713;50.038;20.000;2023-01-24T13:15:00;25.40;;;13.20;;
48897;SDS011;34713;50.038;20.000;2023-01-24T13:17:31;17.60;;;11.50;;
48897;SDS011;34713;50.038;20.000;2023-01-24T13:22:43;20.50;;;12.70;;
48897;SDS011;34713;50.038;20.000;2023-01-24T13:33:35;17.40;;;10.50;;
48897;SDS011;34713;50.038;20.000;2023-01-24T13:36:04;19.70;;;11.60;;
48897;SDS011;34713;50.038;20.000;2023-01-24T13:38:39;18.50;;;11.10;;
48897;SDS011;34713;50.038;20.000;2023-01-24T13:41:13;17.30;;;10.80;;
48897;SDS011;34713;50.038;20.000;2023-01-24T13:43:59;19.10;;;11.50;;
48897;SDS011;34713;50.038;20.000;2023-01-24T13:47:32;17.90;;;11.80;;
48897;SDS011;34713;50.038;20.000;2023-01-24T13:52:01;20.10;;;11.20;;
48897;SDS011;34713;50.038;20.000;2023-01-24T13:59:40;18.60;;;11.40;;
48897;SDS011;34713;50.038;20.000;2023-01-24T14:02:25;17.00;;;11.00;;
48897;SDS011;34713;50.038;20.000;2023-01-24T14:04:55;19.40;;;11.10;;
48897;SDS011;34713;50.038;20.000;2023-01-24T14:07:26;19.80;;;11.80;;
48897;SDS011;34713;50.038;20.000;2023-01-24T14:09:56;19.40;;;11.20;;
48897;SDS011;34713;50.038;20.000;2023-01-24T14:12:27;19.30;;;12.10;;
48897;SDS011;34713;50.038;20.000;2023-01-24T14:14:58;17.80;;;11.10;;
48897;SDS011;34713;50.038;20.000;2023-01-24T14:20:02;20.90;;;12.20;;
48897;SDS011;34713;50.038;20.000;2023-01-24T14:22:36;17.70;;;11.80;;
48897;SDS011;34713;50.038;20.000;2023-01-24T14:25:17;20.90;;;11.90;;
48897;SDS011;34713;50.038;20.000;2023-01-24T14:28:21;18.30;;;10.80;;
48897;SDS011;34713;50.038;20.000;2023-01-24T14:30:56;18.70;;;11.80;;
48897;SDS011;34713;50.038;20.000;2023-01-24T14:36:16;17.80;;;10.70;;
48897;SDS011;34713;50.038;20.000;2023-01-24T14:41:47;15.10;;;10.00;;
48897;SDS011;34713;50.038;20.000;2023-01-24T14:44:19;18.20;;;11.10;;
48897;SDS011;34713;50.038;20.000;2023-01-24T14:46:52;15.20;;;9.60;;
48897;SDS011;34713;50.038;20.000;2023-01-24T14:49:34;15.80;;;10.60;;
48897;SDS011;34713;50.038;20.000;2023-01-24T14:52:12;15.60;;;10.40;;
48897;SDS011;34713;50.038;20.000;2023-01-24T14:54:43;17.00;;;10.00;;
48897;SDS011;34713;50.038;20.000;2023-01-24T14:57:28;16.60;;;11.50;;
48897;SDS011;34713;50.038;20.000;2023-01-24T14:59:59;16.80;;;10.20;;
48897;SDS011;34713;50.038;20.000;2023-01-24T15:02:58;17.30;;;11.20;;
48897;SDS011;34713;50.038;20.000;2023-01-24T15:07:51;17.30;;;11.10;;
48897;SDS011;34713;50.038;20.000;2023-01-24T15:10:25;18.30;;;11.00;;
48897;SDS011;34713;50.038;20.000;2023-01-24T15:12:58;15.40;;;10.90;;
48897;SDS011;34713;50.038;20.000;2023-01-24T15:15:26;15.50;;;10.60;;
48897;SDS011;34713;50.038;20.000;2023-01-24T15:17:56;15.10;;;10.30;;
48897;SDS011;34713;50.038;20.000;2023-01-24T15:22:56;15.10;;;9.60;;
48897;SDS011;34713;50.038;20.000;2023-01-24T15:25:32;15.50;;;10.30;;
48897;SDS011;34713;50.038;20.000;2023-01-24T15:31:00;16.20;;;9.50;;
48897;SDS011;34713;50.038;20.000;2023-01-24T15:33:41;13.30;;;9.40;;
48897;SDS011;34713;50.038;20.000;2023-01-24T15:36:19;14.20;;;9.20;;
48897;SDS011;34713;50.038;20.000;2023-01-24T15:38:48;13.90;;;9.50;;
48897;SDS011;34713;50.038;20.000;2023-01-24T15:41:22;14.70;;;9.70;;
48897;SDS011;34713;50.038;20.000;2023-01-24T15:43:54;12.30;;;9.10;;
48897;SDS011;34713;50.038;20.000;2023-01-24T15:46:28;15.20;;;9.70;;
48897;SDS011;34713;50.038;20.000;2023-01-24T15:49:29;18.60;;;11.10;;
48897;SDS011;34713;50.038;20.000;2023-01-24T15:54:33;14.50;;;9.70;;
48897;SDS011;34713;50.038;20.000;2023-01-24T15:57:01;15.60;;;10.40;;
48897;SDS011;34713;50.038;20.000;2023-01-24T15:59:30;14.80;;;9.60;;
48897;SDS011;34713;50.038;20.000;2023-01-24T16:01:58;14.90;;;9.70;;
48897;SDS011;34713;50.038;20.000;2023-01-24T16:04:25;15.40;;;9.70;;
48897;SDS011;34713;50.038;20.000;2023-01-24T16:06:52;14.80;;;9.30;;
48897;SDS011;34713;50.038;20.000;2023-01-24T16:09:18;17.50;;;8.60;;
48897;SDS011;34713;50.038;20.000;2023-01-24T16:11:45;13.80;;;8.20;;
48897;SDS011;34713;50.038;20.000;2023-01-24T16:14:22;15.50;;;9.80;;
48897;SDS011;34713;50.038;20.000;2023-01-24T16:16:50;12.90;;;9.20;;
48897;SDS011;34713;50.038;20.000;2023-01-24T16:19:20;13.50;;;8.50;;
48897;SDS011;34713;50.038;20.000;2023-01-24T16:21:47;13.20;;;8.60;;
48897;SDS011;34713;50.038;20.000;2023-01-24T16:24:14;13.30;;;9.70;;
48897;SDS011;34713;50.038;20.000;2023-01-24T16:26:43;12.10;;;8.30;;
48897;SDS011;34713;50.038;20.000;2023-01-24T16:29:15;12.90;;;8.30;;
48897;SDS011;34713;50.038;20.000;2023-01-24T16:31:44;11.80;;;8.30;;
48897;SDS011;34713;50.038;20.000;2023-01-24T16:34:12;14.00;;;9.70;;
48897;SDS011;34713;50.038;20.000;2023-01-24T16:36:39;12.30;;;8.60;;
48897;SDS011;34713;50.038;20.000;2023-01-24T16:39:06;11.30;;;8.20;;
48897;SDS011;34713;50.038;20.000;2023-01-24T16:41:33;14.10;;;9.30;;
48897;SDS011;34713;50.038;20.000;2023-01-24T16:43:59;13.90;;;8.30;;
48897;SDS011;34713;50.038;20.000;2023-01-24T16:46:26;11.80;;;8.00;;
48897;SDS011;34713;50.038;20.000;2023-01-24T16:48:52;13.10;;;7.60;;
48897;SDS011;34713;50.038;20.000;2023-01-24T16:51:19;12.40;;;9.40;;
48897;SDS011;34713;50.038;20.000;2023-01-24T16:53:46;11.30;;;8.20;;
48897;SDS011;34713;50.038;20.000;2023-01-24T16:56:13;10.60;;;8.00;;
48897;SDS011;34713;50.038;20.000;2023-01-24T16:58:39;13.90;;;9.20;;